AirNav   Free Bose QuietComfort 20
 
 283 users online  

2NE7 Kumor Airport
Grant, Nebraska, USA

GOING TO GRANT?


FAA INFORMATION EFFECTIVE 05 DECEMBER 2019

Location

FAA Identifier: 2NE7
Lat/Long: 40-51-04.9850N 101-56-33.6460W
40-51.083083N 101-56.560767W
40.8513847,-101.9426794
(estimated)
Elevation: 3520 ft. / 1073 m (estimated)
Variation: 10E (1985)
From city: 10 miles W of GRANT, NE
Time zone: UTC -7 (UTC -6 during Daylight Saving Time)
Zip code: 69168

Airport Operations

Airport use: Private use. Permission required prior to landing
Activation date: 01/1975
Control tower: no
ARTCC: DENVER CENTER
FSS: COLUMBUS FLIGHT SERVICE STATION
Attendance: UNATNDD
Wind indicator: yes
Segmented circle: no

Airport Communications

WX AWOS-3 at OGA (18 nm NE): 121.275 (308-284-6573)

Nearby radio navigation aids

VOR radial/distance  VOR name  Freq  Var
SAEr198/17.7SEARLE VOR/DME110.2007E

 
NDB name  Hdg/Dist  Freq  Var  ID
GRANT254/9.735909EGGF --. --. ..-.
CHAPPELL110/27.038310ECNP -.-. -. .--.
OSHKOSH142/37.823309EOKS --- -.- ...

Airport Services

Airframe service: NONE
Powerplant service: NONE

Runway Information

Runway N/S

Dimensions: 3500 x 60 ft. / 1067 x 18 m
Surface: turf
RUNWAY N  RUNWAY S
Traffic pattern: leftleft

Runway E/W

Dimensions: 2600 x 100 ft. / 792 x 30 m
Surface: turf
RUNWAY E  RUNWAY W
Traffic pattern: leftleft

Airport Ownership and Management from official FAA records

Ownership: Privately-owned
Owner: LEON KUMOR
P.O. BOX 712
GRANT, NE 69140
Phone 308-352-4166
ASST. MANAGER: RON KUMOR, 5120 EAST 17TH STREET, CASPER, WY 82609, 307-259-1254, FLYWYO@VCN.COM
Manager: LEON KUMOR
P.O. BOX 712
GRANT, NE 69140
Phone 308-352-4166

Airport Operational Statistics

Aircraft based on the field: 3
Single engine airplanes: 3
    
Aircraft operations: avg 29/month
100% transient general aviation

Additional Remarks

A52-W BLDGS, TREES 1/8 MI EAST.
FOR CD CTC DENVER ARTCC AT 303-651-4257.

Instrument Procedures

There are no published instrument procedures at 2NE7.

Some nearby airports with instrument procedures:

KGGF - Grant Municipal Airport (10 nm E)
KOGA - Searle Field Airport (18 nm NE)
KHEQ - Holyoke Airport (23 nm SW)
KIML - Imperial Municipal Airport (25 nm SE)
KCNP - Billy G Ray Field Airport (27 nm NW)
 
Loc | Ops | Rwys | IFR | FBO | Links
Com | Nav | Svcs | Stats | Notes

Silverhawk Aviation, Inc.
AirBoss

 
Area around 2NE7 (Kumor Airport)
 
Road maps at: MapQuest Bing Google
 
Aerial photo
No photo
 
Sectional chart

 
Airport distance calculator
Flying to Kumor Airport? Find the distance to fly.

From to 2NE7

Sunrise and sunset
Times for 11-Dec-2019
 Local
(UTC-7)
 Zulu
(UTC)
Morning civil twilight06:3213:32
Sunrise07:0314:03
Sunset16:1923:19
Evening civil twilight16:5023:50

Current date and time
Zulu (UTC)  11-Dec-2019 09:33:52
Local (UTC-7)  11-Dec-2019 02:33:52
 
METAR
KOGA 
13nm NE 
110915Z AUTO 25007KT 10SM CLR M04/M05 A3017 RMK AO2 T10431055
KHEQ 
23nm SW 
110910Z AUTO 27006KT 10SM CLR M04/M07 A3018 RMK AO2
KIML 
25nm SE 
110853Z AUTO 26006KT 10SM CLR M05/M09 A3019 RMK AO2 SLP252 T10501089 58006
TAF
KSNY 
49nm W 
110521Z 1106/1206 26007KT P6SM FEW250 FM111300 27004KT P6SM BKN250 FM111800 20008KT P6SM FEW250 FM120200 28011KT P6SM SCT200 WS020/30040KT
NOTAMs
Click for the latest NOTAMs
NOTAMs are issued by the DoD/FAA and will open in a separate window not controlled by AirNav.

 

 
 

Would you like to see your business listed on this page?

 If your business provides an interesting product or service to pilots, flight crews, aircraft, or users of the Kumor Airport, you should consider listing it here.  To start the listing process, click on the button below
 
Add a business
 

Other Pages about Kumor Airport

Update a link
 
Copyright © AirNav, LLC. All rights reserved. Privacy Policy  Contact